createdAt,value
2019-05-15T00:02:22.737Z,10.30
2019-05-15T00:04:51.957Z,10.30
2019-05-15T00:07:20.441Z,10.30
2019-05-15T00:09:49.299Z,10.30
2019-05-15T00:12:18.941Z,10.30
2019-05-15T00:14:48.444Z,10.30
2019-05-15T00:17:18.966Z,10.30
2019-05-15T00:19:48.564Z,10.30
2019-05-15T00:22:18.347Z,10.30
2019-05-15T00:24:48.974Z,10.30
2019-05-15T00:27:20.023Z,10.30
2019-05-15T00:29:51.882Z,10.30
2019-05-15T00:32:20.471Z,10.30
2019-05-15T00:34:48.957Z,10.30
2019-05-15T00:37:18.206Z,10.30
2019-05-15T00:39:48.607Z,10.20
2019-05-15T00:42:18.971Z,10.20
2019-05-15T00:44:49.383Z,10.30
2019-05-15T00:47:18.202Z,10.30
2019-05-15T00:49:48.379Z,10.30
2019-05-15T00:52:18.085Z,10.20
2019-05-15T00:54:48.445Z,10.20
2019-05-15T00:57:19.189Z,10.30
2019-05-15T00:59:53.298Z,10.30
2019-05-15T01:02:23.464Z,10.30
2019-05-15T01:04:53.672Z,10.30
2019-05-15T01:07:22.243Z,10.30
2019-05-15T01:09:50.717Z,10.30
2019-05-15T01:12:19.474Z,10.30
2019-05-15T01:14:48.956Z,10.30
2019-05-15T01:17:18.465Z,10.40
2019-05-15T01:19:48.224Z,10.40
2019-05-15T01:22:19.325Z,10.30
2019-05-15T01:24:48.488Z,10.30
2019-05-15T01:27:18.424Z,10.30
2019-05-15T01:29:53.824Z,10.30
2019-05-15T01:32:22.412Z,10.30
2019-05-15T01:34:50.983Z,10.20
2019-05-15T01:37:19.454Z,10.20
2019-05-15T01:39:48.634Z,10.20
2019-05-15T01:42:18.597Z,10.20
2019-05-15T01:44:48.390Z,10.30
2019-05-15T01:47:18.955Z,10.10
2019-05-15T01:49:49.059Z,10.20
2019-05-15T01:52:18.758Z,10.20
2019-05-15T01:54:48.929Z,10.20
2019-05-15T01:57:18.222Z,10.30
2019-05-15T01:59:58.264Z,10.30
2019-05-15T02:02:24.329Z,10.30
2019-05-15T02:04:53.002Z,10.40
2019-05-15T02:07:21.592Z,10.40
2019-05-15T02:09:50.181Z,10.30
2019-05-15T02:12:19.398Z,10.30
2019-05-15T02:14:48.500Z,10.30
2019-05-15T02:17:18.989Z,10.40
2019-05-15T02:19:48.509Z,10.40
2019-05-15T02:22:19.049Z,10.40
2019-05-15T02:24:48.204Z,10.30
2019-05-15T02:27:18.630Z,10.20
2019-05-15T02:30:12.966Z,10.20
2019-05-15T02:32:25.980Z,10.30
2019-05-15T02:34:54.663Z,10.30
2019-05-15T02:37:23.244Z,10.30
2019-05-15T02:39:51.739Z,10.30
2019-05-15T02:42:20.412Z,10.30
2019-05-15T02:44:49.950Z,10.30
2019-05-15T02:47:19.912Z,10.20
2019-05-15T02:49:48.819Z,10.20
2019-05-15T02:52:19.823Z,10.30
2019-05-15T02:54:49.877Z,10.20
2019-05-15T02:57:19.305Z,10.30
2019-05-15T02:59:59.337Z,10.30
2019-05-15T03:02:28.871Z,10.30
2019-05-15T03:04:59.534Z,10.20
2019-05-15T03:07:29.443Z,10.20
2019-05-15T03:09:59.894Z,10.20
2019-05-15T03:12:29.920Z,10.30
2019-05-15T03:14:59.817Z,10.20
2019-05-15T03:17:29.704Z,10.20
2019-05-15T03:19:59.140Z,10.20
2019-05-15T03:22:29.451Z,10.20
2019-05-15T03:24:59.224Z,10.20
2019-05-15T03:27:30.323Z,10.10
2019-05-15T03:29:59.425Z,10.00
2019-05-15T03:32:41.067Z,10.00
2019-05-15T03:35:04.982Z,9.90
2019-05-15T03:37:33.915Z,9.90
2019-05-15T03:40:03.626Z,10.00
2019-05-15T03:42:32.158Z,9.80
2019-05-15T03:45:00.749Z,9.80
2019-05-15T03:47:30.147Z,9.90
2019-05-15T03:50:00.138Z,10.00
2019-05-15T03:52:30.532Z,10.10
2019-05-15T03:54:59.999Z,10.10
2019-05-15T03:57:30.334Z,10.10
2019-05-15T03:59:59.799Z,10.00
2019-05-15T04:02:30.183Z,9.90
2019-05-15T04:05:01.618Z,10.00
2019-05-15T04:07:29.425Z,10.10
2019-05-15T04:09:58.876Z,10.10
2019-05-15T04:12:29.108Z,9.90
2019-05-15T04:14:59.643Z,10.00
2019-05-15T04:17:29.451Z,10.00
2019-05-15T04:19:59.028Z,10.10
2019-05-15T04:22:29.163Z,10.10
2019-05-15T04:24:59.358Z,10.20
2019-05-15T04:27:29.102Z,10.20
2019-05-15T04:30:00.437Z,10.00
2019-05-15T04:32:29.161Z,10.00
2019-05-15T04:34:59.351Z,10.00
2019-05-15T04:37:29.864Z,10.10
2019-05-15T04:39:59.767Z,10.20
2019-05-15T04:42:29.863Z,10.30
2019-05-15T04:44:59.617Z,10.30
2019-05-15T04:47:30.189Z,10.30
2019-05-15T04:49:59.109Z,10.20
2019-05-15T04:52:30.489Z,10.20
2019-05-15T04:55:01.165Z,10.20
2019-05-15T04:57:34.229Z,10.30
2019-05-15T05:00:02.105Z,10.40
2019-05-15T05:02:32.162Z,10.40
2019-05-15T05:05:01.313Z,10.40
2019-05-15T05:07:30.239Z,10.40
2019-05-15T05:09:59.516Z,10.40
2019-05-15T05:12:28.991Z,10.40
2019-05-15T05:14:58.728Z,10.40
2019-05-15T05:17:28.887Z,10.20
2019-05-15T05:19:58.329Z,10.20
2019-05-15T05:22:28.240Z,10.30
2019-05-15T05:24:58.476Z,10.30
2019-05-15T05:27:28.877Z,10.30
2019-05-15T05:30:03.165Z,10.40
2019-05-15T05:32:35.270Z,10.30
2019-05-15T05:35:08.156Z,10.20
2019-05-15T05:37:38.636Z,10.20
2019-05-15T05:40:08.031Z,10.30
2019-05-15T05:42:38.966Z,10.30
2019-05-15T05:45:09.365Z,10.30
2019-05-15T05:47:38.563Z,10.30
2019-05-15T05:50:08.034Z,10.30
2019-05-15T05:52:39.004Z,10.30
2019-05-15T05:55:09.213Z,10.20
2019-05-15T05:57:38.496Z,10.30
2019-05-15T06:00:09.331Z,10.40
2019-05-15T06:02:47.043Z,10.30
2019-05-15T06:05:08.727Z,10.20
2019-05-15T06:07:38.693Z,10.00
2019-05-15T06:10:09.055Z,10.10
2019-05-15T06:12:38.820Z,10.20
2019-05-15T06:15:08.791Z,10.20
2019-05-15T06:17:39.348Z,10.20
2019-05-15T06:20:08.472Z,10.30
2019-05-15T06:22:38.834Z,10.30
2019-05-15T06:25:11.192Z,10.30
2019-05-15T06:27:39.061Z,10.30
2019-05-15T06:30:08.919Z,10.20
2019-05-15T06:32:39.784Z,10.10
2019-05-15T06:35:09.116Z,10.20
2019-05-15T06:37:39.675Z,10.20
2019-05-15T06:40:08.649Z,10.20
2019-05-15T06:42:39.490Z,10.10
2019-05-15T06:45:08.364Z,9.90
2019-05-15T06:47:39.381Z,10.00
2019-05-15T06:50:08.612Z,10.00
2019-05-15T06:52:37.992Z,9.90
2019-05-15T06:55:09.067Z,10.00
2019-05-15T06:57:39.815Z,10.00
2019-05-15T07:00:09.357Z,10.00
2019-05-15T07:02:38.646Z,10.00
2019-05-15T07:05:08.103Z,10.10
2019-05-15T07:07:38.660Z,10.20
2019-05-15T07:10:09.035Z,10.30
2019-05-15T07:12:39.191Z,10.20
2019-05-15T07:15:09.219Z,10.20
2019-05-15T07:17:39.442Z,10.00
2019-05-15T07:20:09.471Z,10.10
2019-05-15T07:22:39.051Z,10.10
2019-05-15T07:25:09.153Z,10.30
2019-05-15T07:27:39.013Z,10.50
2019-05-15T07:30:12.148Z,10.60
2019-05-15T07:32:40.921Z,10.70
2019-05-15T07:35:10.163Z,10.80
2019-05-15T07:37:39.082Z,10.70
2019-05-15T07:40:08.942Z,10.60
2019-05-15T07:42:38.659Z,10.70
2019-05-15T07:45:08.550Z,10.70
2019-05-15T07:47:38.591Z,10.60
2019-05-15T07:50:10.025Z,10.60
2019-05-15T07:52:40.604Z,10.60
2019-05-15T07:55:12.568Z,10.80
2019-05-15T07:57:41.217Z,10.80
2019-05-15T08:00:12.123Z,10.80
2019-05-15T08:02:40.947Z,11.00
2019-05-15T08:05:11.957Z,11.00
2019-05-15T08:07:40.469Z,11.00
2019-05-15T08:10:09.909Z,11.00
2019-05-15T08:12:39.296Z,10.90
2019-05-15T08:15:09.839Z,10.80
2019-05-15T08:17:59.219Z,10.80
2019-05-15T08:20:11.921Z,10.90
2019-05-15T08:22:40.592Z,11.00
2019-05-15T08:26:05.671Z,11.00
2019-05-15T08:27:41.742Z,11.10
2019-05-15T08:30:11.477Z,11.00
2019-05-15T08:32:40.040Z,11.00
2019-05-15T08:35:09.035Z,11.00
2019-05-15T08:37:38.456Z,11.00
2019-05-15T08:40:11.578Z,10.90
2019-05-15T08:42:42.007Z,11.10
2019-05-15T08:45:12.075Z,11.10
2019-05-15T08:47:40.902Z,11.30
2019-05-15T08:50:11.438Z,11.30
2019-05-15T08:52:40.257Z,11.20
2019-05-15T08:55:09.295Z,11.20
2019-05-15T08:57:38.486Z,11.20
2019-05-15T09:00:10.725Z,11.30
2019-05-15T09:02:39.386Z,11.50
2019-05-15T09:05:09.822Z,11.30
2019-05-15T09:07:38.573Z,11.50
2019-05-15T09:10:09.159Z,11.50
2019-05-15T09:12:39.597Z,11.70
2019-05-15T09:15:09.050Z,11.70
2019-05-15T09:17:39.871Z,11.80
2019-05-15T09:20:10.431Z,11.90
2019-05-15T09:22:39.348Z,12.00
2019-05-15T09:25:08.940Z,12.00
2019-05-15T09:27:38.429Z,12.10
2019-05-15T09:30:10.962Z,12.10
2019-05-15T09:32:39.630Z,12.20
2019-05-15T09:35:08.638Z,12.30
2019-05-15T09:37:38.581Z,12.30
2019-05-15T09:40:08.814Z,12.40
2019-05-15T09:42:38.776Z,12.40
2019-05-15T09:45:09.240Z,12.50
2019-05-15T09:47:39.707Z,12.50
2019-05-15T09:50:10.402Z,12.60
2019-05-15T09:52:39.343Z,12.60
2019-05-15T09:55:09.355Z,12.60
2019-05-15T09:57:39.141Z,12.70
2019-05-15T10:00:12.692Z,12.70
2019-05-15T10:02:41.253Z,12.80
2019-05-15T10:05:11.669Z,12.80
2019-05-15T10:07:40.605Z,12.90
2019-05-15T10:10:11.155Z,12.90
2019-05-15T10:12:41.540Z,13.00
2019-05-15T10:15:11.820Z,13.10
2019-05-15T10:17:40.877Z,13.20
2019-05-15T10:20:10.388Z,13.20
2019-05-15T10:22:39.044Z,13.30
2019-05-15T10:25:08.425Z,13.30
2019-05-15T10:27:39.792Z,13.40
2019-05-15T10:30:13.003Z,13.50
2019-05-15T10:32:41.667Z,13.50
2019-05-15T10:35:24.619Z,13.50
2019-05-15T10:37:41.052Z,13.60
2019-05-15T10:40:10.161Z,13.60
2019-05-15T10:42:40.398Z,13.60
2019-05-15T10:45:09.633Z,13.70
2019-05-15T10:47:38.993Z,13.70
2019-05-15T10:50:08.569Z,13.60
2019-05-15T10:52:38.337Z,13.60
2019-05-15T10:55:09.251Z,13.60
2019-05-15T10:57:42.586Z,13.60
2019-05-15T11:00:12.762Z,13.60
2019-05-15T11:02:41.339Z,13.60
2019-05-15T11:05:10.255Z,13.60
2019-05-15T11:07:39.492Z,13.60
2019-05-15T11:10:08.915Z,13.60
2019-05-15T11:12:37.966Z,13.60
2019-05-15T11:15:11.056Z,13.60
2019-05-15T11:17:39.066Z,13.60
2019-05-15T11:20:09.490Z,13.60
2019-05-15T11:22:42.214Z,13.60
2019-05-15T11:25:10.302Z,13.50
2019-05-15T11:27:39.405Z,13.50
2019-05-15T11:30:15.053Z,13.50
2019-05-15T11:32:44.946Z,13.50
2019-05-15T11:35:14.594Z,13.50
2019-05-15T11:37:46.237Z,13.50
2019-05-15T11:40:13.866Z,13.50
2019-05-15T11:42:42.341Z,13.50
2019-05-15T11:45:13.367Z,13.50
2019-05-15T11:47:41.872Z,13.60
2019-05-15T11:50:10.802Z,13.60
2019-05-15T11:52:40.443Z,13.60
2019-05-15T11:55:09.468Z,13.60
2019-05-15T11:57:46.116Z,13.60
2019-05-15T12:00:20.285Z,13.60
2019-05-15T12:02:45.291Z,13.50
2019-05-15T12:05:15.228Z,13.50
2019-05-15T12:07:47.700Z,13.50
2019-05-15T12:10:14.371Z,13.40
2019-05-15T12:12:42.981Z,13.40
2019-05-15T12:15:13.511Z,13.40
2019-05-15T12:17:42.057Z,13.40
2019-05-15T12:20:11.107Z,13.30
2019-05-15T12:22:41.540Z,13.30
2019-05-15T12:25:10.567Z,13.30
2019-05-15T12:27:40.671Z,13.30
2019-05-15T12:30:16.036Z,13.30
2019-05-15T12:32:44.914Z,13.30
2019-05-15T12:35:14.638Z,13.30
2019-05-15T12:37:43.073Z,13.20
2019-05-15T13:00:21.555Z,13.10
2019-05-15T13:02:50.079Z,13.10
2019-05-15T13:05:19.251Z,13.10
2019-05-15T13:07:48.323Z,13.10
2019-05-15T13:10:18.391Z,13.10
2019-05-15T13:13:00.600Z,13.10
2019-05-15T13:15:20.569Z,13.10
2019-05-15T13:17:53.014Z,13.10
2019-05-15T13:20:21.115Z,13.10
2019-05-15T13:25:19.192Z,13.10
2019-05-15T13:27:48.840Z,13.00
2019-05-15T13:30:19.519Z,13.10
2019-05-15T13:32:49.636Z,13.00
2019-05-15T13:35:18.550Z,12.90
2019-05-15T13:37:49.508Z,12.90
2019-05-15T13:40:18.750Z,12.90
2019-05-15T13:42:48.593Z,12.90
2019-05-15T13:45:18.571Z,12.90
2019-05-15T13:47:47.087Z,12.90
2019-05-15T13:50:15.627Z,12.90
2019-05-15T13:52:44.246Z,13.00
2019-05-15T13:55:12.905Z,13.00
2019-05-15T13:57:41.428Z,13.00
2019-05-15T14:00:17.529Z,13.00
2019-05-15T14:02:48.007Z,13.00
2019-05-15T14:05:16.491Z,13.00
2019-05-15T14:07:49.846Z,12.90
2019-05-15T14:10:15.332Z,12.90
2019-05-15T14:12:43.834Z,12.90
2019-05-15T14:15:14.855Z,12.90
2019-05-15T14:17:43.301Z,12.90
2019-05-15T14:20:12.412Z,12.90
2019-05-15T14:22:41.950Z,12.80
2019-05-15T14:25:12.177Z,12.80
2019-05-15T14:27:41.006Z,12.80
2019-05-15T14:30:18.777Z,12.80
2019-05-15T14:32:48.440Z,12.80
2019-05-15T14:35:18.034Z,12.80
2019-05-15T14:38:02.267Z,12.80
2019-05-15T14:40:17.762Z,12.70
2019-05-15T14:42:48.515Z,12.70
2019-05-15T14:45:19.106Z,12.70
2019-05-15T14:47:49.279Z,12.70
2019-05-15T14:50:17.997Z,12.70
2019-05-15T14:52:47.975Z,12.70
2019-05-15T14:55:16.797Z,12.70
2019-05-15T14:57:48.784Z,12.60
2019-05-15T15:00:20.775Z,12.60
2019-05-15T15:02:49.727Z,12.60
2019-05-15T15:05:21.509Z,12.60
2019-05-15T15:07:49.192Z,12.50
2019-05-15T15:10:20.154Z,12.40
2019-05-15T15:12:49.946Z,12.40
2019-05-15T15:15:18.687Z,12.50
2019-05-15T15:17:49.287Z,12.30
2019-05-15T15:20:18.912Z,12.40
2019-05-15T15:22:50.131Z,12.40
2019-05-15T15:25:18.999Z,12.40
2019-05-15T15:27:48.072Z,12.40
2019-05-15T15:30:21.737Z,12.40
2019-05-15T15:32:50.394Z,12.20
2019-05-15T15:35:19.146Z,12.30
2019-05-15T15:37:48.881Z,12.10
2019-05-15T15:40:19.029Z,12.00
2019-05-15T15:42:54.616Z,11.90
2019-05-15T15:45:23.363Z,12.00
2019-05-15T15:47:53.719Z,11.80
2019-05-15T15:50:24.522Z,11.90
2019-05-15T15:52:53.000Z,12.00
2019-05-15T15:55:21.491Z,12.10
2019-05-15T15:57:52.126Z,12.10
2019-05-15T16:00:24.069Z,12.10
2019-05-15T16:02:52.672Z,12.10
2019-05-15T16:05:22.375Z,12.00
2019-05-15T16:07:50.881Z,12.00
2019-05-15T16:10:20.010Z,11.90
2019-05-15T16:12:49.324Z,11.80
2019-05-15T16:15:18.197Z,11.80
2019-05-15T16:17:48.776Z,12.00
2019-05-15T16:20:18.962Z,12.00
2019-05-15T16:22:49.496Z,12.00
2019-05-15T16:25:18.554Z,12.00
2019-05-15T16:27:48.984Z,12.00
2019-05-15T16:30:22.952Z,12.10
2019-05-15T16:32:53.769Z,12.10
2019-05-15T16:35:23.997Z,12.20
2019-05-15T16:37:52.551Z,12.10
2019-05-15T16:40:21.241Z,11.90
2019-05-15T16:42:49.933Z,11.90
2019-05-15T16:45:18.665Z,12.00
2019-05-15T16:47:48.540Z,12.00
2019-05-15T16:50:18.051Z,11.90
2019-05-15T16:52:49.093Z,12.00
2019-05-15T16:55:17.737Z,11.80
2019-05-15T16:57:47.919Z,11.90
2019-05-15T17:00:24.536Z,11.90
2019-05-15T17:03:08.659Z,12.00
2019-05-15T17:05:24.093Z,12.00
2019-05-15T17:07:52.631Z,12.00
2019-05-15T17:10:21.967Z,12.00
2019-05-15T17:12:51.730Z,11.90
2019-05-15T17:15:20.770Z,11.90
2019-05-15T17:17:49.593Z,11.90
2019-05-15T17:20:18.254Z,11.90
2019-05-15T17:22:48.394Z,11.80
2019-05-15T17:25:18.327Z,11.80
2019-05-15T17:27:47.302Z,11.80
2019-05-15T17:30:22.897Z,11.70
2019-05-15T17:32:53.184Z,11.60
2019-05-15T17:35:23.120Z,11.60
2019-05-15T17:37:52.180Z,11.60
2019-05-15T17:40:22.002Z,11.50
2019-05-15T17:42:55.524Z,11.40
2019-05-15T17:45:23.969Z,11.30
2019-05-15T17:47:53.049Z,11.30
2019-05-15T17:50:21.586Z,11.20
2019-05-15T17:52:50.930Z,11.20
2019-05-15T17:55:19.498Z,11.30
2019-05-15T17:57:56.676Z,11.30
2019-05-15T18:00:28.454Z,11.30
2019-05-15T18:02:56.941Z,11.30
2019-05-15T18:05:28.073Z,11.20
2019-05-15T18:07:58.268Z,11.10
2019-05-15T18:10:27.912Z,11.30
2019-05-15T18:12:58.346Z,11.40
2019-05-15T18:15:27.153Z,11.20
2019-05-15T18:17:55.747Z,11.20
2019-05-15T18:20:25.161Z,11.20
2019-05-15T18:22:53.781Z,11.20
2019-05-15T18:25:22.195Z,11.30
2019-05-15T18:27:50.606Z,11.30
2019-05-15T18:30:28.161Z,11.20
2019-05-15T18:32:58.802Z,11.10
2019-05-15T18:35:29.514Z,11.30
2019-05-15T18:37:59.284Z,11.30
2019-05-15T18:40:28.139Z,11.30
2019-05-15T18:42:59.218Z,11.30
2019-05-15T18:45:29.017Z,11.30
2019-05-15T18:47:58.947Z,11.40
2019-05-15T18:50:28.477Z,11.40
2019-05-15T18:52:58.384Z,11.40
2019-05-15T18:55:27.228Z,11.50
2019-05-15T18:57:58.214Z,11.50
2019-05-15T19:00:36.034Z,11.50
2019-05-15T19:03:16.679Z,11.40
2019-05-15T19:05:34.341Z,11.30
2019-05-15T19:08:03.129Z,11.20
2019-05-15T19:10:31.633Z,11.30
2019-05-15T19:13:00.068Z,11.40
2019-05-15T19:15:30.118Z,11.40
2019-05-15T19:17:58.804Z,11.40
2019-05-15T19:20:28.107Z,11.30
2019-05-15T19:22:59.008Z,11.20
2019-05-15T19:25:28.803Z,11.30
2019-05-15T19:27:57.499Z,11.40
2019-05-15T19:30:28.922Z,11.40
2019-05-15T19:32:58.874Z,11.40
2019-05-15T19:35:28.028Z,11.30
2019-05-15T19:37:58.579Z,11.10
2019-05-15T19:40:28.318Z,10.90
2019-05-15T19:42:59.188Z,11.00
2019-05-15T19:45:28.348Z,11.10
2019-05-15T19:47:58.667Z,11.10
2019-05-15T19:50:28.735Z,11.00
2019-05-15T19:52:59.189Z,11.10
2019-05-15T19:55:29.705Z,11.20
2019-05-15T19:57:58.880Z,11.30
2019-05-15T20:00:31.647Z,11.30
2019-05-15T20:03:00.245Z,11.40
2019-05-15T20:05:29.169Z,11.40
2019-05-15T20:07:58.823Z,11.40
2019-05-15T20:10:29.352Z,11.40
2019-05-15T20:12:59.817Z,11.40
2019-05-15T20:15:28.738Z,11.40
2019-05-15T20:17:57.696Z,10.90
2019-05-15T20:20:28.382Z,10.60
2019-05-15T20:22:59.979Z,10.80
2019-05-15T20:25:28.735Z,11.00
2019-05-15T20:27:57.359Z,10.90
2019-05-15T20:30:30.516Z,10.90
2019-05-15T20:32:59.592Z,11.00
2019-05-15T20:35:28.454Z,11.10
2019-05-15T20:37:58.137Z,11.10
2019-05-15T20:40:26.752Z,11.10
2019-05-15T20:42:55.465Z,11.20
2019-05-15T20:45:25.682Z,11.30
2019-05-15T20:47:54.194Z,11.20
2019-05-15T20:50:22.658Z,11.20
2019-05-15T20:52:52.499Z,11.00
2019-05-15T20:55:21.044Z,10.80
2019-05-15T20:57:51.251Z,10.90
2019-05-15T21:00:20.664Z,11.10
2019-05-15T21:02:49.166Z,11.10
2019-05-15T21:05:18.652Z,11.00
2019-05-15T21:07:48.626Z,11.00
2019-05-15T21:10:21.135Z,10.90
2019-05-15T21:12:48.935Z,10.90
2019-05-15T21:15:21.479Z,10.80
2019-05-15T21:17:57.570Z,10.70
2019-05-15T21:20:19.445Z,10.80
2019-05-15T21:22:49.324Z,11.00
2019-05-15T21:25:19.743Z,10.80
2019-05-15T21:27:50.183Z,10.80
2019-05-15T21:30:20.860Z,10.90
2019-05-15T21:32:49.754Z,10.80
2019-05-15T21:35:18.314Z,10.90
2019-05-15T21:37:48.654Z,10.90
2019-05-15T21:40:17.120Z,11.00
2019-05-15T21:42:48.872Z,11.10
2019-05-15T21:45:18.246Z,11.10
2019-05-15T21:47:47.112Z,11.10
2019-05-15T21:50:15.703Z,11.20
2019-05-15T21:52:44.364Z,11.00
2019-05-15T21:55:12.955Z,11.10
2019-05-15T21:57:42.593Z,11.20
2019-05-15T22:00:28.965Z,11.20
2019-05-15T22:02:58.997Z,11.20
2019-05-15T22:05:28.614Z,11.20
2019-05-15T22:07:58.848Z,11.20
2019-05-15T22:10:28.851Z,11.10
2019-05-15T22:12:58.908Z,11.10
2019-05-15T22:15:28.545Z,11.10
2019-05-15T22:17:57.271Z,11.10
2019-05-15T22:20:30.123Z,11.20
2019-05-15T22:22:59.285Z,11.20
2019-05-15T22:25:28.077Z,11.20
2019-05-15T22:27:57.852Z,11.20
2019-05-15T22:30:34.067Z,11.20
2019-05-15T22:33:02.556Z,11.20
2019-05-15T22:35:31.254Z,11.20
2019-05-15T22:37:59.740Z,11.20
2019-05-15T22:40:29.019Z,10.70
2019-05-15T22:42:59.270Z,10.60
2019-05-15T22:45:28.546Z,10.70
2019-05-15T22:47:58.689Z,10.60
2019-05-15T22:50:28.056Z,10.80
2019-05-15T22:52:58.617Z,10.90
2019-05-15T22:55:29.025Z,11.00
2019-05-15T22:57:59.527Z,11.00
2019-05-15T23:00:39.249Z,10.90
2019-05-15T23:03:08.380Z,10.90
2019-05-15T23:05:36.927Z,10.70
2019-05-15T23:08:05.310Z,10.70
2019-05-15T23:10:34.204Z,10.80
2019-05-15T23:13:02.733Z,10.90
2019-05-15T23:15:31.441Z,10.90
2019-05-15T23:17:59.817Z,10.90
2019-05-15T23:20:29.520Z,10.90
2019-05-15T23:22:58.602Z,10.90
2019-05-15T23:25:28.927Z,11.00
2019-05-15T23:27:58.839Z,10.90
2019-05-15T23:30:35.593Z,10.90
2019-05-15T23:33:03.992Z,10.80
2019-05-15T23:35:37.584Z,10.80
2019-05-15T23:38:02.878Z,10.70
2019-05-15T23:40:31.274Z,10.80
2019-05-15T23:42:59.671Z,10.80
2019-05-15T23:45:28.926Z,10.80
2019-05-15T23:47:58.111Z,10.80
2019-05-15T23:50:28.873Z,10.80
2019-05-15T23:52:58.420Z,10.80
2019-05-15T23:55:28.466Z,10.80
2019-05-15T23:57:58.421Z,10.80
